Time;durP1;ratioP1;P1;durP2;ratioP2;P2;SDS_P1;SDS_P2;PMS_P1;PMS_P2;Temp;Humidity;BMP_temperature;BMP_pressure;BME280_temperature;BME280_humidity;BME280_pressure;Samples;Min_cycle;Max_cycle;Signal;HPM_P1;HPM_P2
2023/12/29 00:01:30;;;;;;;4.60;1.20;;;11.70;84.20;;;;;;5017870;28;20014;-66
2023/12/29 00:03:56;;;;;;;2.63;1.20;;;11.70;84.20;;;;;;5016413;28;20048;-67
2023/12/29 00:06:22;;;;;;;3.35;1.00;;;11.80;84.20;;;;;;5015948;28;20049;-67
2023/12/29 00:08:47;;;;;;;6.30;1.00;;;11.70;84.10;;;;;;5019798;28;20032;-67
2023/12/29 00:11:20;;;;;;;3.38;1.15;;;11.80;84.10;;;;;;5022487;28;20030;-68
2023/12/29 00:13:46;;;;;;;4.43;1.50;;;11.80;84.20;;;;;;5013263;28;20132;-66
2023/12/29 00:16:11;;;;;;;3.30;0.93;;;11.80;84.10;;;;;;5019992;28;20021;-64
2023/12/29 00:18:37;;;;;;;3.13;1.10;;;11.80;84.10;;;;;;5018092;28;20036;-67
2023/12/29 00:21:03;;;;;;;5.13;0.90;;;11.80;84.00;;;;;;5018239;28;20014;-66
2023/12/29 00:23:29;;;;;;;2.67;1.15;;;11.80;83.90;;;;;;5021395;28;20399;-65
2023/12/29 00:25:54;;;;;;;3.70;1.05;;;11.80;83.80;;;;;;5022862;28;20037;-68
2023/12/29 00:28:20;;;;;;;2.65;1.40;;;11.80;83.80;;;;;;5024960;28;20029;-64
2023/12/29 00:30:45;;;;;;;2.90;1.00;;;11.80;83.90;;;;;;5024873;28;20069;-66
2023/12/29 00:33:11;;;;;;;4.47;1.00;;;11.80;83.90;;;;;;5018908;28;20030;-66
2023/12/29 00:35:38;;;;;;;4.13;1.65;;;11.80;84.10;;;;;;5024422;28;20404;-65
2023/12/29 00:38:04;;;;;;;4.78;1.35;;;11.80;84.40;;;;;;5023483;28;20026;-65
2023/12/29 00:40:30;;;;;;;4.88;1.27;;;11.70;84.90;;;;;;5021006;28;20041;-66
2023/12/29 00:42:55;;;;;;;2.97;0.90;;;11.60;85.30;;;;;;5020648;28;20026;-67
2023/12/29 00:45:21;;;;;;;3.33;0.80;;;11.60;85.50;;;;;;5020823;28;20029;-69
2023/12/29 00:47:48;;;;;;;2.83;1.05;;;11.60;85.50;;;;;;5019884;28;20049;-66
2023/12/29 00:50:14;;;;;;;4.00;1.00;;;11.60;85.60;;;;;;5020434;28;20018;-65
2023/12/29 00:52:39;;;;;;;5.40;1.02;;;11.60;85.80;;;;;;5018417;28;20038;-68
2023/12/29 00:55:05;;;;;;;2.30;1.00;;;11.60;85.90;;;;;;5023830;28;20034;-67
2023/12/29 00:57:31;;;;;;;3.45;1.00;;;11.50;85.90;;;;;;5023957;28;20507;-65
2023/12/29 00:59:57;;;;;;;2.53;0.70;;;11.50;86.00;;;;;;5021297;28;20033;-66
2023/12/29 01:02:22;;;;;;;3.15;1.40;;;11.60;85.90;;;;;;5022610;28;20037;-68
2023/12/29 01:04:48;;;;;;;3.17;1.10;;;11.60;85.90;;;;;;5022140;28;20021;-69
2023/12/29 01:07:14;;;;;;;3.15;1.25;;;11.60;85.90;;;;;;5021891;28;20025;-65
2023/12/29 01:09:42;;;;;;;5.07;1.40;;;11.60;85.80;;;;;;5023154;28;20041;-68
2023/12/29 01:12:08;;;;;;;3.63;1.35;;;11.60;85.70;;;;;;5021524;28;20034;-66
2023/12/29 01:14:33;;;;;;;4.07;1.10;;;11.70;85.70;;;;;;5025678;28;20048;-69
2023/12/29 01:16:59;;;;;;;5.22;1.45;;;11.70;85.70;;;;;;5026560;28;20026;-66
2023/12/29 01:19:24;;;;;;;3.97;1.33;;;11.60;86.20;;;;;;5026002;28;20021;-65
2023/12/29 01:21:50;;;;;;;5.72;1.20;;;11.70;85.60;;;;;;5024862;28;20036;-65
2023/12/29 01:24:15;;;;;;;6.97;1.33;;;11.70;85.60;;;;;;5020152;28;20441;-67
2023/12/29 01:26:41;;;;;;;3.90;1.20;;;11.70;85.60;;;;;;5022939;28;20611;-67
2023/12/29 01:29:07;;;;;;;4.80;1.15;;;11.60;85.70;;;;;;5021710;28;20025;-66
2023/12/29 01:31:32;;;;;;;3.13;1.20;;;11.60;85.80;;;;;;5023526;28;20029;-67
2023/12/29 01:33:59;;;;;;;3.42;1.52;;;11.60;85.90;;;;;;5023629;28;20025;-67
2023/12/29 01:36:24;;;;;;;5.32;1.20;;;11.60;86.00;;;;;;5026068;28;20026;-66
2023/12/29 01:38:50;;;;;;;3.33;1.00;;;11.60;86.10;;;;;;5022789;28;20036;-68
2023/12/29 01:41:16;;;;;;;4.18;1.30;;;11.60;86.20;;;;;;5027029;28;20373;-66
2023/12/29 01:44:13;;;;;;;2.42;1.00;;;11.60;86.30;;;;;;5022546;28;20100;-66
2023/12/29 01:46:39;;;;;;;4.00;1.13;;;11.60;86.40;;;;;;5024303;28;20030;-66
2023/12/29 01:49:04;;;;;;;5.57;1.45;;;11.50;86.50;;;;;;5026984;28;20037;-67
2023/12/29 01:51:31;;;;;;;7.80;1.50;;;11.50;86.70;;;;;;5028128;28;20025;-64
2023/12/29 01:53:58;;;;;;;4.18;1.10;;;11.50;86.90;;;;;;5016856;28;20492;-65
2023/12/29 01:56:23;;;;;;;4.00;1.10;;;11.50;86.90;;;;;;5020303;28;20017;-66
2023/12/29 01:58:50;;;;;;;2.63;1.27;;;11.50;87.00;;;;;;5020981;28;20041;-66
2023/12/29 02:01:18;;;;;;;2.88;1.00;;;11.50;86.90;;;;;;5022998;28;20164;-65
2023/12/29 02:03:44;;;;;;;4.10;1.02;;;11.50;86.90;;;;;;5020389;28;20017;-66
2023/12/29 02:06:10;;;;;;;6.80;1.30;;;11.50;87.00;;;;;;5019691;28;20033;-66
2023/12/29 02:08:37;;;;;;;2.88;1.10;;;11.50;87.10;;;;;;5021821;28;20025;-66
2023/12/29 02:11:04;;;;;;;5.47;1.10;;;11.50;87.30;;;;;;5023967;28;20049;-67
2023/12/29 02:13:29;;;;;;;2.63;1.00;;;11.50;87.30;;;;;;5022930;28;20040;-67
2023/12/29 02:16:03;;;;;;;3.40;1.20;;;11.50;87.20;;;;;;5023237;28;20478;-65
2023/12/29 02:18:32;;;;;;;5.47;1.10;;;11.50;87.30;;;;;;5023555;28;20026;-67
2023/12/29 02:20:58;;;;;;;7.00;1.85;;;11.50;87.50;;;;;;5018440;28;20029;-69
2023/12/29 02:23:23;;;;;;;2.70;1.00;;;11.40;87.60;;;;;;5025041;28;20464;-65
2023/12/29 02:25:50;;;;;;;4.47;1.35;;;11.40;87.70;;;;;;5022870;28;20025;-67
2023/12/29 02:28:23;;;;;;;2.90;1.15;;;11.40;87.90;;;;;;5024428;28;20017;-65
2023/12/29 02:30:48;;;;;;;3.85;1.10;;;11.40;87.90;;;;;;5022726;28;20025;-66
2023/12/29 02:33:19;;;;;;;2.20;1.10;;;11.40;88.10;;;;;;5024749;28;20029;-64
2023/12/29 02:35:46;;;;;;;2.03;1.00;;;11.30;88.20;;;;;;5021606;28;20534;-66
2023/12/29 02:38:12;;;;;;;4.03;1.33;;;11.40;88.30;;;;;;5017741;28;20284;-66
2023/12/29 02:40:38;;;;;;;3.20;0.90;;;11.30;88.50;;;;;;5018957;28;20087;-67
2023/12/29 02:43:04;;;;;;;5.30;1.20;;;11.30;88.70;;;;;;5019555;28;20029;-67
2023/12/29 02:45:29;;;;;;;6.13;1.13;;;11.30;89.10;;;;;;5021185;28;20083;-66
2023/12/29 02:47:55;;;;;;;5.43;1.20;;;11.30;89.10;;;;;;5021697;28;20036;-67
2023/12/29 02:50:21;;;;;;;5.13;1.40;;;11.20;89.40;;;;;;5021203;28;20105;-65
2023/12/29 02:52:46;;;;;;;3.47;1.20;;;11.20;89.50;;;;;;5023309;28;20037;-65
2023/12/29 02:55:12;;;;;;;3.33;1.30;;;11.20;89.70;;;;;;5021210;28;20079;-66
2023/12/29 02:57:38;;;;;;;4.63;0.90;;;11.20;89.90;;;;;;5021781;28;20087;-69
2023/12/29 03:00:06;;;;;;;4.03;1.60;;;11.20;89.80;;;;;;5022039;28;20029;-66
2023/12/29 03:02:32;;;;;;;4.65;1.33;;;11.20;89.70;;;;;;5023379;28;20026;-65
2023/12/29 03:04:58;;;;;;;2.83;0.90;;;11.20;90.00;;;;;;5023394;28;20025;-66
2023/12/29 03:07:23;;;;;;;2.33;1.20;;;11.20;90.00;;;;;;5021526;28;20540;-66
2023/12/29 03:09:49;;;;;;;5.22;1.30;;;11.20;90.00;;;;;;5024585;28;20621;-66
2023/12/29 03:12:14;;;;;;;6.90;1.60;;;11.20;90.10;;;;;;5026944;28;20116;-66
2023/12/29 03:14:40;;;;;;;5.40;1.50;;;11.20;90.20;;;;;;5023799;28;20111;-66
2023/12/29 03:17:05;;;;;;;3.83;1.38;;;11.20;90.20;;;;;;5018082;28;20052;-65
2023/12/29 03:19:31;;;;;;;4.90;1.10;;;11.20;90.20;;;;;;5022240;28;20033;-65
2023/12/29 03:21:57;;;;;;;1.80;0.90;;;11.20;90.20;;;;;;5020991;28;20076;-66
2023/12/29 03:24:22;;;;;;;2.45;0.70;;;11.20;90.20;;;;;;5020354;28;20393;-65
2023/12/29 03:26:48;;;;;;;2.45;1.05;;;11.20;90.20;;;;;;5021820;28;20021;-64
2023/12/29 03:29:13;;;;;;;2.35;1.05;;;11.20;90.50;;;;;;5023690;28;20025;-64
2023/12/29 03:31:39;;;;;;;3.75;0.82;;;11.20;90.30;;;;;;5021052;28;20092;-67
2023/12/29 03:34:05;;;;;;;3.58;0.80;;;11.20;90.30;;;;;;5023204;28;20033;-65
2023/12/29 03:36:31;;;;;;;3.63;0.90;;;11.20;90.30;;;;;;5025002;28;20040;-66
2023/12/29 03:38:56;;;;;;;2.45;1.10;;;11.20;90.30;;;;;;5021895;28;20083;-67
2023/12/29 03:41:22;;;;;;;3.65;0.98;;;11.20;90.30;;;;;;5027183;28;20395;-66
2023/12/29 03:43:47;;;;;;;2.40;0.80;;;11.20;90.30;;;;;;5024436;28;20061;-64
2023/12/29 03:46:17;;;;;;;2.45;1.13;;;11.30;90.30;;;;;;5022698;28;20030;-65
2023/12/29 03:48:43;;;;;;;1.85;0.98;;;11.30;90.30;;;;;;5028285;28;20147;-65
2023/12/29 03:51:08;;;;;;;2.72;0.93;;;11.30;90.30;;;;;;5022157;28;20033;-66
2023/12/29 03:53:34;;;;;;;6.80;1.20;;;11.30;90.30;;;;;;5024079;28;20399;-66
2023/12/29 03:56:14;;;;;;;3.78;1.15;;;11.30;90.30;;;;;;5023777;28;20661;-65
2023/12/29 03:58:40;;;;;;;4.43;1.23;;;11.20;90.30;;;;;;5021424;28;20033;-64
2023/12/29 04:01:12;;;;;;;3.67;1.23;;;11.30;90.30;;;;;;5026771;28;20029;-65
2023/12/29 04:03:38;;;;;;;1.60;0.90;;;11.20;90.30;;;;;;5024935;28;20029;-65
2023/12/29 04:06:05;;;;;;;2.42;1.00;;;11.30;90.30;;;;;;5020996;28;20487;-66
2023/12/29 04:08:30;;;;;;;3.97;1.23;;;11.30;90.30;;;;;;5024977;28;20030;-65
2023/12/29 04:10:56;;;;;;;5.68;1.20;;;11.30;90.30;;;;;;5020683;28;20049;-65
2023/12/29 04:13:22;;;;;;;3.10;1.00;;;11.30;90.20;;;;;;5023547;28;20048;-65
2023/12/29 04:15:48;;;;;;;3.05;1.20;;;11.30;90.20;;;;;;5027492;28;20108;-65
2023/12/29 04:18:13;;;;;;;4.20;0.98;;;11.30;90.20;;;;;;5020649;28;20029;-65
2023/12/29 04:20:39;;;;;;;10.30;2.08;;;11.30;90.40;;;;;;5021438;28;20108;-66
2023/12/29 04:23:07;;;;;;;6.70;1.45;;;11.40;90.10;;;;;;5011614;28;20084;-64
2023/12/29 04:25:32;;;;;;;4.72;1.10;;;11.40;90.00;;;;;;5014141;28;20049;-64
2023/12/29 04:27:58;;;;;;;7.38;1.42;;;11.40;89.90;;;;;;5016550;28;20065;-64
2023/12/29 04:30:24;;;;;;;4.88;1.10;;;11.40;89.80;;;;;;5017497;28;20021;-64
2023/12/29 04:32:49;;;;;;;3.65;1.00;;;11.50;89.60;;;;;;5020039;28;20029;-63
2023/12/29 04:35:15;;;;;;;3.80;1.20;;;11.40;89.40;;;;;;5012572;28;20048;-64
2023/12/29 04:37:44;;;;;;;2.42;0.90;;;11.50;89.50;;;;;;5017692;28;20056;-66
2023/12/29 04:40:10;;;;;;;3.85;1.30;;;11.50;89.30;;;;;;5018217;28;20029;-65
2023/12/29 04:42:35;;;;;;;4.70;1.33;;;11.50;89.30;;;;;;5022048;28;20017;-64
2023/12/29 04:45:01;;;;;;;5.22;1.27;;;11.40;89.20;;;;;;5025785;28;20126;-66
2023/12/29 04:47:26;;;;;;;5.30;1.42;;;11.50;89.10;;;;;;5015292;28;20025;-64
2023/12/29 04:49:52;;;;;;;8.80;1.58;;;11.50;88.90;;;;;;5025746;28;20038;-64
2023/12/29 04:52:17;;;;;;;3.30;1.10;;;11.50;88.90;;;;;;5025060;28;20032;-67
2023/12/29 04:54:43;;;;;;;5.80;1.55;;;11.40;88.70;;;;;;5021528;28;20472;-66
2023/12/29 04:57:09;;;;;;;6.47;1.40;;;11.50;88.70;;;;;;5018131;28;20060;-66
2023/12/29 04:59:35;;;;;;;5.72;1.50;;;11.50;88.60;;;;;;5025005;28;20030;-66
2023/12/29 05:02:01;;;;;;;2.45;1.00;;;11.50;88.40;;;;;;5019473;28;20036;-65
2023/12/29 05:04:26;;;;;;;6.18;1.00;;;11.50;88.40;;;;;;5019191;28;20136;-65
2023/12/29 05:06:52;;;;;;;6.28;1.48;;;11.50;88.30;;;;;;5019852;28;20057;-65
2023/12/29 05:09:17;;;;;;;4.45;1.30;;;11.50;88.20;;;;;;5017276;28;20046;-65
2023/12/29 05:11:43;;;;;;;6.75;1.65;;;11.50;88.20;;;;;;5025573;28;20034;-65
2023/12/29 05:14:09;;;;;;;5.13;1.40;;;11.50;87.90;;;;;;5023357;28;20079;-65
2023/12/29 05:16:35;;;;;;;3.75;1.23;;;11.50;87.80;;;;;;5026230;28;20022;-67
2023/12/29 05:19:00;;;;;;;5.75;1.35;;;11.50;87.90;;;;;;5023492;28;20021;-66
2023/12/29 05:21:26;;;;;;;6.40;1.50;;;11.50;87.80;;;;;;5019231;28;20040;-65
2023/12/29 05:23:52;;;;;;;5.82;1.70;;;11.50;87.80;;;;;;5025153;28;20020;-67
2023/12/29 05:26:18;;;;;;;8.15;1.73;;;11.50;87.60;;;;;;5025959;28;20037;-65
2023/12/29 05:28:44;;;;;;;6.75;1.42;;;11.50;87.40;;;;;;5022207;28;20014;-66
2023/12/29 05:31:09;;;;;;;9.57;1.63;;;11.40;87.30;;;;;;5021134;28;20026;-65
2023/12/29 05:33:35;;;;;;;9.20;1.90;;;11.40;87.20;;;;;;5022231;28;20033;-66
2023/12/29 05:36:09;;;;;;;5.93;1.92;;;11.40;87.20;;;;;;5019871;28;20075;-65
2023/12/29 05:38:35;;;;;;;5.95;1.50;;;11.40;87.20;;;;;;5023164;28;20039;-66
2023/12/29 05:41:04;;;;;;;7.50;1.40;;;11.50;87.20;;;;;;5020928;28;20065;-67
2023/12/29 05:43:32;;;;;;;9.02;2.05;;;11.40;87.00;;;;;;5019094;28;20029;-66
2023/12/29 05:45:58;;;;;;;7.03;1.38;;;11.40;86.90;;;;;;5018024;28;20025;-66
2023/12/29 05:48:24;;;;;;;6.10;1.35;;;11.40;87.00;;;;;;5024097;28;20598;-65
2023/12/29 05:50:53;;;;;;;8.27;1.75;;;11.40;87.00;;;;;;5023706;28;20021;-65
2023/12/29 05:53:19;;;;;;;5.28;1.20;;;11.40;87.00;;;;;;5019590;28;20080;-66
2023/12/29 05:55:45;;;;;;;4.85;1.25;;;11.40;87.00;;;;;;5018604;28;20038;-65
2023/12/29 05:58:12;;;;;;;7.10;1.60;;;11.40;86.90;;;;;;5021287;28;20155;-66
2023/12/29 06:00:40;;;;;;;7.15;1.60;;;11.40;86.90;;;;;;5020983;28;20492;-65
2023/12/29 06:03:06;;;;;;;3.88;1.10;;;11.40;86.90;;;;;;5018954;28;20233;-66
2023/12/29 06:05:32;;;;;;;4.28;1.20;;;11.40;86.90;;;;;;5024579;28;20120;-65
2023/12/29 06:07:58;;;;;;;5.68;1.40;;;11.40;87.00;;;;;;5018463;28;20029;-67
2023/12/29 06:10:24;;;;;;;6.65;1.30;;;11.30;87.00;;;;;;5019833;28;20042;-66
2023/12/29 06:12:50;;;;;;;4.00;1.10;;;11.30;87.00;;;;;;5022054;28;20060;-67
2023/12/29 06:15:15;;;;;;;3.13;1.13;;;11.30;87.10;;;;;;5026621;28;20088;-66
2023/12/29 06:17:43;;;;;;;4.57;1.10;;;11.30;87.00;;;;;;5020995;28;20034;-67
2023/12/29 06:20:10;;;;;;;4.30;1.27;;;11.30;87.00;;;;;;5018541;28;20025;-68
2023/12/29 06:22:40;;;;;;;4.05;1.10;;;11.30;87.10;;;;;;5019759;28;20079;-66
2023/12/29 06:25:10;;;;;;;6.40;1.60;;;11.30;87.10;;;;;;5024534;28;20026;-65
2023/12/29 06:27:40;;;;;;;2.83;1.10;;;11.30;87.10;;;;;;5019963;28;20046;-66
2023/12/29 06:30:12;;;;;;;2.90;0.90;;;11.30;87.10;;;;;;5015975;28;20013;-65
2023/12/29 06:32:39;;;;;;;2.90;0.90;;;11.30;87.10;;;;;;5025507;28;20033;-64
2023/12/29 06:35:06;;;;;;;6.93;1.38;;;11.30;87.20;;;;;;5021363;28;20030;-64
2023/12/29 06:37:32;;;;;;;5.47;1.20;;;11.30;87.30;;;;;;5016330;28;20036;-67
2023/12/29 06:39:59;;;;;;;4.90;1.23;;;11.30;87.40;;;;;;5019368;28;20104;-65
2023/12/29 06:42:25;;;;;;;4.05;1.10;;;11.30;87.40;;;;;;5025114;28;20036;-64
2023/12/29 06:44:50;;;;;;;4.63;1.25;;;11.30;87.40;;;;;;5017175;28;20025;-65
2023/12/29 06:47:16;;;;;;;3.15;1.08;;;11.30;87.40;;;;;;5018030;28;20026;-65
2023/12/29 06:49:42;;;;;;;5.32;1.30;;;11.30;87.40;;;;;;5026439;28;20091;-64
2023/12/29 06:52:07;;;;;;;5.32;1.20;;;11.20;87.50;;;;;;5020786;28;20025;-65
2023/12/29 06:54:36;;;;;;;4.65;1.40;;;11.20;87.50;;;;;;5013146;28;20038;-64
2023/12/29 06:57:02;;;;;;;4.63;1.20;;;11.30;87.70;;;;;;5019672;28;20029;-63
2023/12/29 06:59:28;;;;;;;3.97;1.23;;;11.20;87.60;;;;;;5016869;28;20045;-63
2023/12/29 07:01:54;;;;;;;3.70;0.93;;;11.20;87.60;;;;;;5016733;28;20037;-64
2023/12/29 07:04:19;;;;;;;4.13;1.73;;;11.30;87.70;;;;;;5019550;28;20048;-64
2023/12/29 07:06:45;;;;;;;4.82;1.48;;;11.30;87.70;;;;;;5019618;28;20029;-66
2023/12/29 07:09:10;;;;;;;4.25;1.58;;;11.30;87.90;;;;;;5021770;28;20477;-64
2023/12/29 07:11:36;;;;;;;5.07;1.65;;;11.30;88.00;;;;;;5017227;28;20028;-64
2023/12/29 07:14:02;;;;;;;6.18;1.27;;;11.20;88.30;;;;;;5015856;28;20152;-64
2023/12/29 07:16:28;;;;;;;1.92;0.80;;;11.10;88.50;;;;;;5019334;28;20105;-65
2023/12/29 07:18:54;;;;;;;3.03;0.85;;;11.10;88.80;;;;;;5018891;28;20116;-65
2023/12/29 07:21:19;;;;;;;3.25;1.38;;;11.10;89.00;;;;;;5020630;28;20119;-66
2023/12/29 07:23:45;;;;;;;2.53;1.02;;;11.00;89.30;;;;;;5018472;28;20589;-66
2023/12/29 07:26:11;;;;;;;3.30;0.85;;;10.90;89.50;;;;;;5018557;28;20053;-66
2023/12/29 07:28:37;;;;;;;3.63;1.13;;;10.90;90.20;;;;;;5017903;28;20484;-65
2023/12/29 07:31:03;;;;;;;3.97;1.13;;;10.90;90.00;;;;;;5016267;28;20116;-65
2023/12/29 07:33:29;;;;;;;3.08;1.08;;;10.80;90.20;;;;;;5018476;28;20113;-64
2023/12/29 07:35:55;;;;;;;3.05;1.02;;;10.80;90.30;;;;;;5013965;28;20029;-64
2023/12/29 07:38:21;;;;;;;3.15;1.00;;;10.80;90.40;;;;;;5018937;28;20026;-66
2023/12/29 07:40:47;;;;;;;2.63;0.98;;;10.80;90.40;;;;;;5016491;28;20051;-67
2023/12/29 07:43:13;;;;;;;2.30;0.73;;;10.80;90.30;;;;;;5015670;28;20041;-67
2023/12/29 07:45:39;;;;;;;2.22;0.60;;;10.80;90.40;;;;;;5017501;28;20014;-65
2023/12/29 07:48:06;;;;;;;2.33;1.08;;;10.70;90.40;;;;;;5014040;28;20046;-64
2023/12/29 07:50:31;;;;;;;1.55;0.85;;;10.70;90.50;;;;;;5017077;28;20523;-66
2023/12/29 07:52:57;;;;;;;3.85;1.10;;;10.70;90.60;;;;;;5017081;28;20167;-65
2023/12/29 07:55:23;;;;;;;2.42;0.90;;;10.70;90.60;;;;;;5019775;28;20151;-65
2023/12/29 07:57:48;;;;;;;2.00;0.80;;;10.70;90.70;;;;;;5015551;28;20076;-65
2023/12/29 08:00:15;;;;;;;1.80;1.10;;;10.70;90.70;;;;;;5017131;28;20025;-65
2023/12/29 08:02:41;;;;;;;2.25;0.80;;;10.70;90.80;;;;;;5017887;28;20151;-65
2023/12/29 08:05:10;;;;;;;1.48;0.90;;;10.70;90.70;;;;;;5016966;28;20101;-65
2023/12/29 08:07:37;;;;;;;1.98;1.00;;;10.70;90.80;;;;;;5012713;28;20076;-69
2023/12/29 08:10:04;;;;;;;1.80;1.00;;;10.70;90.90;;;;;;5021865;28;20433;-67
2023/12/29 08:12:30;;;;;;;2.47;1.30;;;10.70;91.00;;;;;;5016341;28;20025;-68
2023/12/29 08:14:56;;;;;;;3.92;1.30;;;10.70;91.00;;;;;;5023584;28;20048;-67
2023/12/29 08:17:22;;;;;;;2.30;1.02;;;10.70;91.10;;;;;;5015818;28;20026;-66
2023/12/29 08:19:47;;;;;;;2.22;1.33;;;10.70;91.10;;;;;;5019063;28;20045;-66
2023/12/29 08:22:13;;;;;;;1.55;0.90;;;10.70;91.10;;;;;;5017885;28;20395;-65
2023/12/29 08:24:43;;;;;;;3.58;1.00;;;10.80;91.10;;;;;;5012616;28;20036;-66
2023/12/29 08:27:09;;;;;;;2.70;0.80;;;10.80;91.20;;;;;;5015384;28;20390;-67
2023/12/29 08:29:34;;;;;;;0.98;0.82;;;10.80;91.20;;;;;;5022206;28;20028;-65
2023/12/29 08:32:01;;;;;;;3.33;1.08;;;10.70;91.30;;;;;;5019629;28;20036;-68
2023/12/29 08:34:27;;;;;;;2.35;1.20;;;10.70;91.40;;;;;;5017291;28;20145;-67
2023/12/29 08:36:52;;;;;;;2.30;1.20;;;10.70;91.50;;;;;;5024562;28;20029;-65
2023/12/29 08:39:18;;;;;;;3.15;1.27;;;10.80;91.60;;;;;;5023702;28;20026;-67
2023/12/29 08:41:44;;;;;;;2.50;1.00;;;10.80;91.60;;;;;;5019507;28;20038;-67
2023/12/29 08:44:10;;;;;;;2.15;0.95;;;10.80;91.60;;;;;;5014112;28;20018;-65
2023/12/29 08:46:35;;;;;;;2.50;1.00;;;10.80;91.50;;;;;;5017975;28;20083;-64
2023/12/29 08:49:01;;;;;;;4.40;1.10;;;10.90;91.50;;;;;;5015729;28;20068;-66
2023/12/29 08:51:27;;;;;;;3.10;1.13;;;10.90;91.60;;;;;;5019700;28;20113;-66
2023/12/29 08:53:52;;;;;;;2.00;1.20;;;10.90;91.70;;;;;;5013380;28;20092;-67
2023/12/29 08:56:18;;;;;;;2.38;1.27;;;10.80;91.80;;;;;;5012452;28;20492;-67
2023/12/29 08:58:44;;;;;;;3.08;1.20;;;10.90;91.90;;;;;;5012463;28;20524;-65
2023/12/29 09:01:10;;;;;;;2.38;1.10;;;10.90;92.00;;;;;;5015329;28;20022;-65
2023/12/29 09:03:35;;;;;;;3.30;1.17;;;10.90;92.10;;;;;;5015275;28;20084;-65
2023/12/29 09:06:02;;;;;;;1.48;1.05;;;10.90;92.20;;;;;;5012819;28;20029;-66
2023/12/29 09:08:28;;;;;;;3.58;1.30;;;10.90;92.20;;;;;;5015834;28;20069;-65
2023/12/29 09:10:53;;;;;;;1.70;0.90;;;10.90;92.30;;;;;;5015166;28;20026;-65
2023/12/29 09:13:22;;;;;;;1.45;0.85;;;11.00;92.30;;;;;;5012092;28;20034;-64
2023/12/29 09:15:48;;;;;;;2.97;1.15;;;11.00;92.20;;;;;;5014127;28;20033;-66
2023/12/29 09:18:13;;;;;;;0.73;0.73;;;11.00;92.20;;;;;;5019049;28;20080;-64
2023/12/29 09:20:39;;;;;;;1.42;0.90;;;11.00;92.20;;;;;;5011895;28;20444;-66
2023/12/29 09:23:05;;;;;;;2.90;1.00;;;11.00;92.20;;;;;;5015467;28;20056;-66
2023/12/29 09:25:31;;;;;;;1.88;0.90;;;11.00;92.30;;;;;;5014825;28;20100;-66
2023/12/29 09:27:56;;;;;;;1.52;0.80;;;11.00;92.30;;;;;;5013660;28;20025;-65
2023/12/29 09:30:22;;;;;;;3.72;1.05;;;11.00;92.30;;;;;;5016792;28;20030;-67
2023/12/29 09:32:48;;;;;;;3.38;1.10;;;11.10;92.40;;;;;;5018919;28;20037;-67
2023/12/29 09:35:14;;;;;;;3.00;1.00;;;11.10;92.60;;;;;;5022862;28;20034;-66
2023/12/29 09:37:41;;;;;;;1.58;0.88;;;11.10;92.60;;;;;;5020501;28;20021;-66
2023/12/29 09:40:09;;;;;;;1.42;0.77;;;11.10;92.60;;;;;;5025140;28;20029;-68
2023/12/29 09:42:37;;;;;;;2.17;0.90;;;11.10;92.50;;;;;;5022549;28;20030;-65
2023/12/29 09:45:07;;;;;;;2.38;0.90;;;11.10;92.50;;;;;;5026598;28;20022;-65
2023/12/29 09:47:36;;;;;;;1.65;0.82;;;11.20;92.50;;;;;;5027944;28;20055;-66
2023/12/29 09:50:03;;;;;;;2.42;0.93;;;11.20;92.40;;;;;;5021253;28;20101;-65
2023/12/29 09:52:29;;;;;;;4.40;1.10;;;11.20;92.40;;;;;;5021419;28;20049;-68
2023/12/29 09:54:55;;;;;;;3.22;1.40;;;11.20;92.50;;;;;;5017778;28;20071;-65
2023/12/29 09:57:20;;;;;;;1.65;1.00;;;11.20;92.40;;;;;;5015774;28;20060;-65
2023/12/29 09:59:51;;;;;;;2.17;0.88;;;11.20;92.40;;;;;;5018039;28;20072;-64
2023/12/29 10:02:17;;;;;;;2.40;0.98;;;11.20;92.40;;;;;;5021098;28;20034;-64
2023/12/29 10:04:42;;;;;;;1.77;0.80;;;11.30;92.40;;;;;;5019477;28;20026;-64
2023/12/29 10:07:13;;;;;;;1.83;0.80;;;11.20;92.40;;;;;;5020164;28;20053;-65
2023/12/29 10:09:41;;;;;;;0.93;0.80;;;11.30;92.30;;;;;;5022560;28;20377;-66
2023/12/29 10:12:10;;;;;;;1.77;1.08;;;11.30;92.30;;;;;;5017478;28;20568;-64
2023/12/29 10:14:41;;;;;;;1.02;0.70;;;11.30;92.30;;;;;;5017586;28;20033;-64
2023/12/29 10:17:12;;;;;;;1.70;1.00;;;11.40;92.20;;;;;;5021755;28;20053;-64
2023/12/29 10:19:45;;;;;;;1.58;1.02;;;11.40;92.20;;;;;;5021152;28;20037;-67
2023/12/29 10:22:15;;;;;;;2.80;1.05;;;11.40;92.10;;;;;;5020928;28;20033;-65
2023/12/29 10:24:43;;;;;;;1.42;0.82;;;11.40;92.10;;;;;;5019426;28;20025;-67
2023/12/29 10:27:09;;;;;;;1.10;0.68;;;11.40;92.10;;;;;;5020826;28;20029;-66
2023/12/29 10:29:36;;;;;;;1.42;0.82;;;11.40;92.10;;;;;;5023504;28;20034;-66
2023/12/29 10:32:02;;;;;;;0.90;0.80;;;11.50;92.10;;;;;;5019826;28;20444;-64
2023/12/29 10:34:28;;;;;;;0.98;0.90;;;11.50;92.10;;;;;;5020365;28;20041;-66
2023/12/29 10:36:55;;;;;;;1.40;1.10;;;11.50;92.10;;;;;;5020472;28;20017;-65
2023/12/29 10:39:21;;;;;;;0.88;0.85;;;11.50;92.00;;;;;;5021348;28;20513;-64
2023/12/29 10:41:47;;;;;;;2.50;1.00;;;11.50;92.00;;;;;;5025890;28;20025;-66
2023/12/29 10:44:13;;;;;;;2.25;1.00;;;11.50;92.00;;;;;;5021454;28;20606;-66
2023/12/29 10:46:39;;;;;;;1.23;0.73;;;11.50;92.00;;;;;;5020947;28;20112;-65
2023/12/29 10:49:11;;;;;;;1.77;0.90;;;11.60;92.00;;;;;;5020000;28;20070;-65
2023/12/29 10:51:38;;;;;;;0.70;0.70;;;11.60;92.10;;;;;;5017612;28;20044;-66
2023/12/29 10:54:04;;;;;;;1.23;0.80;;;11.70;92.00;;;;;;5023132;28;20033;-67
2023/12/29 10:56:31;;;;;;;0.80;0.80;;;11.70;92.00;;;;;;5019173;28;20026;-66
2023/12/29 10:59:05;;;;;;;1.73;0.95;;;11.70;91.90;;;;;;5020027;28;20383;-65
2023/12/29 11:01:35;;;;;;;2.17;1.00;;;11.70;91.90;;;;;;5019141;28;20030;-65
2023/12/29 11:04:06;;;;;;;2.35;0.93;;;11.70;91.90;;;;;;5022569;28;20507;-64
2023/12/29 11:06:44;;;;;;;0.80;0.70;;;11.70;91.90;;;;;;5018096;28;20022;-65
2023/12/29 11:09:11;;;;;;;1.05;0.80;;;11.80;91.90;;;;;;5021031;28;20585;-68
2023/12/29 11:11:37;;;;;;;1.23;0.90;;;11.80;91.80;;;;;;5022778;28;20136;-66
2023/12/29 11:14:03;;;;;;;0.98;0.70;;;11.80;91.80;;;;;;5023222;28;20026;-64
2023/12/29 11:16:31;;;;;;;0.93;0.65;;;11.80;91.70;;;;;;5021308;28;20026;-67
2023/12/29 11:18:59;;;;;;;1.77;0.90;;;11.80;91.70;;;;;;5024638;28;20029;-64
2023/12/29 11:21:27;;;;;;;1.08;0.90;;;11.80;91.70;;;;;;5020649;28;20080;-65
2023/12/29 11:23:53;;;;;;;1.38;0.95;;;11.80;91.70;;;;;;5022119;28;20111;-66
2023/12/29 11:26:19;;;;;;;2.25;1.20;;;11.80;91.70;;;;;;5017948;28;20029;-67
2023/12/29 11:28:51;;;;;;;1.73;1.00;;;11.80;91.60;;;;;;5016840;28;20088;-65
2023/12/29 11:31:17;;;;;;;1.20;1.02;;;11.80;91.50;;;;;;5018647;28;20041;-68
2023/12/29 11:33:48;;;;;;;1.90;1.00;;;11.80;91.50;;;;;;5025610;28;20098;-65
2023/12/29 11:36:25;;;;;;;2.13;1.17;;;11.90;91.50;;;;;;5019412;28;20029;-64
2023/12/29 11:39:20;;;;;;;2.65;1.15;;;11.90;91.40;;;;;;5018338;28;20029;-66
2023/12/29 11:42:14;;;;;;;2.42;1.02;;;12.00;91.30;;;;;;5018115;28;20021;-64
2023/12/29 11:44:39;;;;;;;2.22;1.30;;;12.00;91.20;;;;;;5016672;28;20152;-66
2023/12/29 11:47:06;;;;;;;2.47;1.00;;;12.00;91.00;;;;;;5016542;28;20108;-65
2023/12/29 11:50:00;;;;;;;2.88;0.80;;;12.10;90.90;;;;;;5016997;28;20014;-66
2023/12/29 11:52:35;;;;;;;3.83;1.20;;;12.10;90.80;;;;;;5020446;28;20074;-66
2023/12/29 11:55:11;;;;;;;1.88;0.88;;;12.10;90.70;;;;;;5017708;28;20053;-66
2023/12/29 11:57:39;;;;;;;1.70;0.93;;;12.10;90.60;;;;;;5019195;28;20404;-66
2023/12/29 12:00:05;;;;;;;1.80;0.80;;;12.10;90.50;;;;;;5020127;28;20570;-66
2023/12/29 12:02:32;;;;;;;2.67;0.85;;;12.20;90.50;;;;;;5015304;28;20522;-65
2023/12/29 12:04:58;;;;;;;3.00;0.95;;;12.20;90.40;;;;;;5015856;28;20037;-66
2023/12/29 12:07:24;;;;;;;2.72;0.90;;;12.20;90.40;;;;;;5013163;28;20392;-64
2023/12/29 12:09:50;;;;;;;2.40;1.00;;;12.20;90.40;;;;;;5019581;28;20026;-66
2023/12/29 12:12:41;;;;;;;3.92;0.82;;;12.20;90.30;;;;;;5018554;28;20037;-65
2023/12/29 12:15:29;;;;;;;2.75;0.70;;;12.20;90.30;;;;;;5019757;28;20125;-66
2023/12/29 12:17:56;;;;;;;3.00;0.90;;;12.20;90.30;;;;;;5017445;28;20041;-66
2023/12/29 12:20:21;;;;;;;4.72;1.00;;;12.20;90.20;;;;;;5021097;28;20575;-64
2023/12/29 12:22:56;;;;;;;2.58;0.90;;;12.20;90.20;;;;;;5023835;28;20029;-65
2023/12/29 12:25:23;;;;;;;4.30;1.00;;;12.20;90.10;;;;;;5017483;28;20117;-65
2023/12/29 12:27:49;;;;;;;5.25;1.23;;;12.20;90.00;;;;;;5018991;28;20064;-66
2023/12/29 12:30:18;;;;;;;2.67;0.90;;;12.20;90.00;;;;;;5018017;28;20500;-63
2023/12/29 12:32:44;;;;;;;1.83;0.80;;;12.20;90.00;;;;;;5020223;28;20515;-64
2023/12/29 12:35:16;;;;;;;1.88;0.90;;;12.20;90.00;;;;;;5020142;28;20038;-64
2023/12/29 12:37:41;;;;;;;2.75;0.90;;;12.30;90.00;;;;;;5016703;28;20045;-66
2023/12/29 12:40:08;;;;;;;2.38;0.75;;;12.30;89.80;;;;;;5016648;28;20739;-65
2023/12/29 12:42:41;;;;;;;2.45;0.80;;;12.30;89.80;;;;;;5019588;28;20037;-65
2023/12/29 12:45:11;;;;;;;3.63;0.77;;;12.30;89.80;;;;;;5014553;28;20139;-63
2023/12/29 12:47:45;;;;;;;2.38;0.90;;;12.40;89.70;;;;;;5020512;28;20076;-64